Alamo, Nevada
Current Conditions -  °F | °C
As of 10:58 AM on Saturday 25 Oct 2014 (Local Time) from KINS Reporting Station
Clear Clear  
Wind Chill: 72°   Ceiling: Unl
Heat Index: 72°   Visibility: 10mi
Dew Point: 35°   Wind: 1mph
Humidity: 26%   Direction: 60°ENE
Pressure: 30.07"   Gusts: NA
Location:  37.36°N, 115.16°W
Report Text: KINS 251758Z AUTO 06001KT 10SM CLR 22/01 A3007 RMK AO2 SLP147 T02200014 10220 20095 50003 $
Loading
Personal Weather Stations






























Interactive Weather Map
Tropical Storm Tracking
New forecast layout! Learn more

10-Day Weather Forecast

Advertisements
Track Severe Weather on mobile